Kezdőlap
METAR-TAF:

METAR-TAF

Repülőterek :

Tahiti, Francia Polinézia

földrajzi szélesség: 17-33S, földrajzi hosszúság: 149-37W, magasság: 2 m

Jelenlegi meteorológiai megfigyelések

A jelentés 18 perccel ezelõtt készült, 13:00 UTC
Keleti szél 2 kt
Hőmérséklet 26°C
Páratartalom 74%
Légköri nyomás 1011 hPa
Látótávolság 10 km, vagy több
Kevés felhő 2000 lábon
Szórványos felhőzet 13000 lábon

METAR: NTAA 211300Z 08002KT 9999 FEW020 SCT130 26/21 Q1011 NOSIG

Idő: 03:18 (13:18 UTC)

Előrejelzés

A jelentés 2 órával és 18 perccel ezelõtt készült, 11:00 UTC
Az előrejelzés 21-én 12 óra UTC és 22-én 18 óra UTC között érvényes
Északkeleti szél 4 kt
Látótávolság 10 km, vagy több
Kevés felhő 1800 lábon
Szakadozott felhőzet 5000 lábon
Valószínűség 30% :
21-én 12 óra UTC és 22-én 18 óra UTC között ideiglenes
Északkeleti szél 15 kt
Látótávolság: 4500 m
záporok

TAF: NTAA 211100Z 2112/2218 05004KT 9999 FEW018 BKN050 PROB30 TEMPO 2112/2218 05015KT 4500 SHRA

Meteorológiai megfigyelések és előrejelzések több, mint 4000 repülőtéren (METAR és TAF jelentéseket).

A térképen piros és sárga pontok jelzik az elérhető meteorológiai állomásokat.

Mozgassa az egeret a pont fölött, hogy megjelenjen az állomás neve.

Azután kattintson az időjárási megfigyelések és előrejelzések megtekintéséhez.

A térkép megváltoztatása: kattintson a fekete keresztel jelölt zöld gombra ráközelítéshez, a vonallal jelölt zöld gombra távolításhoz, vagy a zöld nyilakra a szomszédos térképek eléréséhez.


METAR-TAF: